Huvudsida
METAR-TAF:

METAR-TAF

Flygplatser :

Hasviks, Norge

Hasviks flygplats

latitud: 70-29N, longitud: 022-09E, höjd: 10 m

Aktuellt väderrapport

Denna rapport gjordes för 5 timmar och 27 minuter sedan, klockan 21:50 UTC
Vind 14 kt från sydost
Temperatur -4°C
Fuktighet 68%
Tryck 1005 hPa
Sikt 10 km eller mer
Inga moln under 1 500 m eller inga cumulonimbus

METAR: ENHK 182150Z 14014KT CAVOK M04/M09 Q1005

Tid: 04:17 (03:17 UTC)


TAF: saknas

Aktuella väderrapporter och prognoser från 4000 flygplatser (METAR- och TAF-rapporter).

De tillgängliga stationerna syns som gula och röda prickar på kartan.

För musen över prickarna för att se namnen på stationerna.

Klicka sedan för att få väderrapporter och prognoser.

För att ändra kartan: Klicka på de gröna knapparna med ett svart kors på för att zooma in; den gröna knappen med ett streck på för att zooma ut; eller på de gröna pilarna för angränsande kartor.


METAR-TAF: